< < Back
Terminal Aerodrome Forecast


Current Version              Previous Versions:   1  2  3  4  5  6  7  8  9  

Terminal Aerodrome Forecast

465
FTUS42 KCAE 102102 AAA
TAFCAE
TAF AMD
KCAE 102102Z 1021/1118 28018G28KT P6SM SCT040
     FM110000 27010KT P6SM SKC=

Latest METAR

667
SAUS80 KWBC 110000 RRA
MTRCAE
METAR KCAE 102356Z 26010KT 10SM FEW250 02/M13 A3008 RMK AO2 SLP188
T00171133 10050 20017 51023


USA.gov is the U.S. government's official web portal to all federal, state and local government web resources and services.